aviador You're here:

SASA Decoded Metar

SALTA in ARGENTINA
Report Time2017-10-22 17:00:00
UTC Time2017-10-22 17:25:02
Flight Rules vfr VFR
Wind360° at 05 kt
W.Decomp.*RWY 02: 4.8 kt HW 1.3 kt LCW
RWY 06: 2.9 kt HW 4.1 kt LCW
Visibility9999 m
Phenomena:N/A
Clouds:Scattered 030 Hf
Broken 100 Hf
Expected CloudBase > 4,800 ft AGL from Temp-Dew spread
Ceiling10,000 ft
Temp16°C (ISA +9)
Dew Point04°C (45% RH)
AAT12.9°C
QNH1024 hPa
Density Alt4,783 ft
Elevation3,990 ft
Report Wrong Elevation
Raw Report
METAR SASA 221700Z 36005KT 9999 SCT030 BKN100 16/04 Q1024=

Extra information for SASA:More info

Metar Taf Metar & Taf Last 4 Metars F.Rules Stats Wind Profile Meteogram Temp Stats Airport Information Weather charts Add Link Nearby VenuesMetar ALERT Operation Metar Decoded Social comments